Time;durP1;ratioP1;P1;durP2;ratioP2;P2;SDS_P1;SDS_P2;PMS_P1;PMS_P2;Temp;Humidity;BMP_temperature;BMP_pressure;BME280_temperature;BME280_humidity;BME280_pressure;Samples;Min_cycle;Max_cycle;Signal;HPM_P1;HPM_P2
2021/10/27 00:02:09;;;;;;;10.27;8.10;;;14.40;86.40;;;;;;5088516;28;20079;-78
2021/10/27 00:04:34;;;;;;;11.77;7.78;;;14.40;86.40;;;;;;5088367;28;20051;-79
2021/10/27 00:07:00;;;;;;;10.30;8.00;;;14.40;86.50;;;;;;5088460;28;20032;-78
2021/10/27 00:09:26;;;;;;;11.07;8.43;;;14.40;86.50;;;;;;5088366;28;20029;-79
2021/10/27 00:11:51;;;;;;;12.25;8.52;;;14.40;86.50;;;;;;5088303;28;20025;-78
2021/10/27 00:14:17;;;;;;;11.88;7.85;;;14.40;86.60;;;;;;5072769;28;20391;-79
2021/10/27 00:16:43;;;;;;;10.75;7.78;;;14.50;86.60;;;;;;5088208;28;20025;-79
2021/10/27 00:19:09;;;;;;;11.40;7.78;;;14.50;86.60;;;;;;5088266;28;20028;-79
2021/10/27 00:21:34;;;;;;;10.32;7.45;;;14.50;86.60;;;;;;5088095;28;20056;-79
2021/10/27 00:24:00;;;;;;;10.80;8.20;;;14.50;86.60;;;;;;5088225;28;20021;-79
2021/10/27 00:26:25;;;;;;;12.23;7.90;;;14.50;86.60;;;;;;5088242;28;20361;-78
2021/10/27 00:28:51;;;;;;;11.80;7.88;;;14.50;86.60;;;;;;5088191;28;20021;-79
2021/10/27 00:31:18;;;;;;;15.50;9.02;;;14.50;86.70;;;;;;5088184;28;20017;-79
2021/10/27 00:33:44;;;;;;;10.85;8.05;;;14.50;86.80;;;;;;5088251;28;20024;-79
2021/10/27 00:36:10;;;;;;;11.45;8.15;;;14.50;86.80;;;;;;5088040;28;20027;-79
2021/10/27 00:38:36;;;;;;;11.57;7.70;;;14.50;86.80;;;;;;5072617;28;20025;-78
2021/10/27 00:41:02;;;;;;;12.82;8.30;;;14.50;86.80;;;;;;5088089;28;20021;-78
2021/10/27 00:43:27;;;;;;;13.63;9.25;;;14.50;86.80;;;;;;5088369;28;20021;-79
2021/10/27 00:45:53;;;;;;;13.27;7.30;;;14.60;86.80;;;;;;5088002;28;20064;-79
2021/10/27 00:48:19;;;;;;;10.38;8.15;;;14.60;86.80;;;;;;5072857;28;20103;-78
2021/10/27 00:50:44;;;;;;;11.77;8.07;;;14.50;86.80;;;;;;5088125;28;20021;-79
2021/10/27 00:53:10;;;;;;;10.48;8.45;;;14.60;86.80;;;;;;5088648;28;20090;-77
2021/10/27 00:55:35;;;;;;;10.98;8.30;;;14.60;86.80;;;;;;5088216;28;20025;-78
2021/10/27 00:58:01;;;;;;;11.38;8.30;;;14.60;86.90;;;;;;5087999;28;20031;-78
2021/10/27 01:00:27;;;;;;;10.65;7.47;;;14.60;86.90;;;;;;5090805;28;20012;-79
2021/10/27 01:02:53;;;;;;;10.48;8.13;;;14.60;87.00;;;;;;5076734;28;20503;-77
2021/10/27 01:05:20;;;;;;;10.98;8.52;;;14.60;87.00;;;;;;5078189;28;20032;-79
2021/10/27 01:07:46;;;;;;;10.63;7.55;;;14.60;87.10;;;;;;5092329;28;20119;-78
2021/10/27 01:10:11;;;;;;;9.05;7.38;;;14.60;87.20;;;;;;5092795;28;20075;-78
2021/10/27 01:12:38;;;;;;;9.07;7.47;;;14.60;87.20;;;;;;5094596;28;20120;-78
2021/10/27 01:15:04;;;;;;;9.63;8.13;;;14.60;87.30;;;;;;5080402;28;20032;-78
2021/10/27 01:17:31;;;;;;;11.98;7.82;;;14.60;87.30;;;;;;5095215;28;20036;-78
2021/10/27 01:19:59;;;;;;;12.77;8.80;;;14.60;87.40;;;;;;5094717;28;20047;-77
2021/10/27 01:22:31;;;;;;;9.15;7.45;;;14.60;87.60;;;;;;5098179;28;20033;-78
2021/10/27 01:24:58;;;;;;;9.18;7.38;;;14.60;87.50;;;;;;5094971;28;20117;-78
2021/10/27 01:27:25;;;;;;;10.60;7.70;;;14.60;87.50;;;;;;5094166;28;20013;-77
2021/10/27 01:29:51;;;;;;;10.80;7.63;;;14.60;87.70;;;;;;5094567;28;20400;-77
2021/10/27 01:32:22;;;;;;;9.73;7.55;;;14.60;87.70;;;;;;5094014;28;20059;-78
2021/10/27 01:34:48;;;;;;;11.38;7.10;;;14.60;87.80;;;;;;5093955;28;20403;-78
2021/10/27 01:37:14;;;;;;;9.25;7.00;;;14.60;87.90;;;;;;5093948;28;20027;-77
2021/10/27 01:39:39;;;;;;;13.05;7.72;;;14.60;87.90;;;;;;5110733;28;20024;-79
2021/10/27 01:42:05;;;;;;;8.57;7.05;;;14.60;87.90;;;;;;5091836;28;20101;-78
2021/10/27 01:44:31;;;;;;;11.15;7.60;;;14.60;88.70;;;;;;5091417;28;20039;-77
2021/10/27 01:46:56;;;;;;;7.53;6.75;;;14.60;88.10;;;;;;5091488;28;20029;-77
2021/10/27 01:49:23;;;;;;;10.85;6.78;;;14.50;88.10;;;;;;5074854;28;20076;-78
2021/10/27 01:51:49;;;;;;;9.38;7.07;;;14.60;88.20;;;;;;5091138;28;20071;-78
2021/10/27 01:54:15;;;;;;;10.60;6.65;;;14.60;88.20;;;;;;5091192;28;20028;-78
2021/10/27 01:56:41;;;;;;;7.80;7.03;;;14.60;88.30;;;;;;5090972;28;20048;-79
2021/10/27 01:59:06;;;;;;;8.77;6.45;;;14.60;88.50;;;;;;5090880;28;20025;-78
2021/10/27 02:01:32;;;;;;;8.93;6.18;;;14.60;88.30;;;;;;5091003;28;20028;-78
2021/10/27 02:03:58;;;;;;;7.88;6.78;;;14.60;88.30;;;;;;5075388;28;20032;-78
2021/10/27 02:06:24;;;;;;;8.48;6.32;;;14.60;88.40;;;;;;5090683;28;20031;-78
2021/10/27 02:08:50;;;;;;;12.23;8.23;;;14.60;88.40;;;;;;5090858;28;20036;-78
2021/10/27 02:14:38;;;;;;;8.88;6.85;;;14.60;88.70;;;;;;5074958;28;20175;-78
2021/10/27 02:17:04;;;;;;;7.95;6.57;;;14.50;88.90;;;;;;5090591;28;20028;-78
2021/10/27 02:19:29;;;;;;;8.98;6.03;;;14.50;88.90;;;;;;5090666;28;20027;-78
2021/10/27 02:21:55;;;;;;;7.97;6.25;;;14.50;88.90;;;;;;5090465;28;20111;-79
2021/10/27 02:24:21;;;;;;;9.38;6.30;;;14.50;88.90;;;;;;5090386;28;20037;-78
2021/10/27 02:26:46;;;;;;;8.95;5.93;;;14.50;89.00;;;;;;5090106;28;20029;-79
2021/10/27 02:29:12;;;;;;;7.30;6.07;;;14.50;88.90;;;;;;5090469;28;20048;-77
2021/10/27 02:31:38;;;;;;;6.65;5.35;;;14.50;88.90;;;;;;5074869;28;20029;-79
2021/10/27 02:34:04;;;;;;;8.05;5.35;;;14.50;89.00;;;;;;5090198;28;20055;-77
2021/10/27 02:36:30;;;;;;;7.63;5.85;;;14.50;88.90;;;;;;5090079;28;20028;-77
2021/10/27 02:38:56;;;;;;;7.28;5.30;;;14.60;88.90;;;;;;5074591;28;20082;-78
2021/10/27 02:41:59;;;;;;;8.90;5.35;;;14.60;88.90;;;;;;5090016;28;20013;-78
2021/10/27 02:44:25;;;;;;;9.02;5.28;;;14.60;88.80;;;;;;5089873;28;20029;-78
2021/10/27 02:46:50;;;;;;;6.85;5.00;;;14.60;88.70;;;;;;5089770;28;20060;-78
2021/10/27 02:49:16;;;;;;;7.22;4.90;;;14.60;88.80;;;;;;5106595;28;20028;-78
2021/10/27 02:51:42;;;;;;;6.47;4.90;;;14.60;88.80;;;;;;5107009;28;20056;-79
2021/10/27 02:54:08;;;;;;;7.95;4.20;;;14.60;88.70;;;;;;5106755;28;20112;-78
2021/10/27 02:56:34;;;;;;;6.88;4.70;;;14.60;88.70;;;;;;5074150;28;20025;-79
2021/10/27 02:58:59;;;;;;;6.10;4.47;;;14.60;88.70;;;;;;5106739;28;20036;-78
2021/10/27 03:01:25;;;;;;;6.60;4.18;;;14.70;88.70;;;;;;5072738;28;20039;-78
2021/10/27 03:03:52;;;;;;;7.93;4.47;;;14.60;88.60;;;;;;5072778;28;20028;-78
2021/10/27 03:06:18;;;;;;;5.90;4.30;;;14.70;88.60;;;;;;5106519;28;20029;-79
2021/10/27 03:08:45;;;;;;;4.90;3.90;;;14.70;88.50;;;;;;5106262;28;20496;-78
2021/10/27 03:11:12;;;;;;;7.25;3.72;;;14.70;88.50;;;;;;5073731;28;20028;-78
2021/10/27 03:13:37;;;;;;;10.48;4.40;;;14.70;88.50;;;;;;5089485;28;20028;-78
2021/10/27 03:16:03;;;;;;;5.05;3.45;;;14.70;88.40;;;;;;5106250;28;20178;-78
2021/10/27 03:18:29;;;;;;;7.32;3.80;;;14.70;88.40;;;;;;5072443;28;20017;-78
2021/10/27 03:20:55;;;;;;;7.50;3.90;;;14.70;88.40;;;;;;5106233;28;20036;-79
2021/10/27 03:23:21;;;;;;;7.35;3.92;;;14.80;88.40;;;;;;5105580;28;20113;-79
2021/10/27 03:25:46;;;;;;;6.80;3.72;;;14.70;88.30;;;;;;5106086;28;20040;-78
2021/10/27 03:28:12;;;;;;;6.13;3.42;;;14.80;88.30;;;;;;5106040;28;20029;-78
2021/10/27 03:30:37;;;;;;;6.20;3.55;;;14.70;88.20;;;;;;5105986;28;20476;-78
2021/10/27 03:33:03;;;;;;;3.95;3.00;;;14.70;88.20;;;;;;5089102;28;20126;-79
2021/10/27 03:35:29;;;;;;;7.20;3.10;;;14.70;88.20;;;;;;5106006;28;20034;-79
2021/10/27 03:37:54;;;;;;;6.18;3.55;;;14.70;88.20;;;;;;5088957;28;20064;-79
2021/10/27 03:40:20;;;;;;;7.22;3.20;;;14.70;88.30;;;;;;5105943;28;20029;-79
2021/10/27 03:42:46;;;;;;;5.43;2.92;;;14.70;88.30;;;;;;5073319;28;20021;-79
2021/10/27 03:45:11;;;;;;;6.43;3.35;;;14.70;88.30;;;;;;5088578;28;20024;-79
2021/10/27 03:47:37;;;;;;;4.32;2.50;;;14.70;88.20;;;;;;5073202;28;20392;-79
2021/10/27 03:50:04;;;;;;;6.97;3.15;;;14.70;88.20;;;;;;5105665;28;20380;-79
2021/10/27 03:52:31;;;;;;;5.78;2.80;;;14.70;88.10;;;;;;5105691;28;20567;-80
2021/10/27 03:54:56;;;;;;;4.57;2.80;;;14.70;88.10;;;;;;5088797;28;20097;-78
2021/10/27 03:57:22;;;;;;;6.57;2.92;;;14.70;88.10;;;;;;5105826;28;20115;-79
2021/10/27 03:59:48;;;;;;;4.57;2.70;;;14.70;88.00;;;;;;5105678;28;20056;-79
2021/10/27 04:02:13;;;;;;;6.63;2.67;;;14.70;88.00;;;;;;5088658;28;20028;-79
2021/10/27 04:04:39;;;;;;;4.88;2.80;;;14.70;87.90;;;;;;5105731;28;20457;-78
2021/10/27 04:07:05;;;;;;;5.05;2.80;;;14.70;87.90;;;;;;5105555;28;20028;-78
2021/10/27 04:09:31;;;;;;;5.32;2.10;;;14.70;87.90;;;;;;5105489;28;20123;-79
2021/10/27 04:11:56;;;;;;;6.07;2.45;;;14.70;87.80;;;;;;5105491;28;20094;-78
2021/10/27 04:14:22;;;;;;;5.15;2.30;;;14.70;87.80;;;;;;5105436;28;20051;-79
2021/10/27 04:16:48;;;;;;;4.47;2.30;;;14.70;87.70;;;;;;5105761;28;20025;-79
2021/10/27 04:19:13;;;;;;;4.32;2.38;;;14.70;87.60;;;;;;5105743;28;20029;-79
2021/10/27 04:21:42;;;;;;;5.10;2.22;;;14.80;87.70;;;;;;5073004;28;20495;-79
2021/10/27 04:24:07;;;;;;;5.18;2.38;;;14.80;87.60;;;;;;5088440;28;20029;-79
2021/10/27 04:26:33;;;;;;;4.97;2.20;;;14.70;87.60;;;;;;5088488;28;20499;-78
2021/10/27 04:28:59;;;;;;;3.60;2.20;;;14.70;87.50;;;;;;5105317;28;20016;-79
2021/10/27 04:31:24;;;;;;;6.70;3.03;;;14.70;87.50;;;;;;5105292;28;20476;-79
2021/10/27 04:33:50;;;;;;;5.68;2.30;;;14.80;87.40;;;;;;5106339;28;20111;-79
2021/10/27 04:36:16;;;;;;;5.50;2.40;;;14.80;87.40;;;;;;5092434;28;20025;-79
2021/10/27 04:38:42;;;;;;;4.93;2.50;;;14.80;87.40;;;;;;5109700;28;20024;-78
2021/10/27 04:41:08;;;;;;;5.85;2.40;;;14.80;87.30;;;;;;5095080;28;20029;-79
2021/10/27 04:43:34;;;;;;;5.78;2.45;;;14.80;87.30;;;;;;5076689;28;20499;-79
2021/10/27 04:46:00;;;;;;;3.78;2.63;;;14.80;87.20;;;;;;5091886;28;20094;-79
2021/10/27 04:48:25;;;;;;;6.15;2.30;;;14.80;87.20;;;;;;5075536;28;20029;-79
2021/10/27 04:50:51;;;;;;;2.97;2.20;;;14.80;87.20;;;;;;5076764;28;20033;-79
2021/10/27 04:53:18;;;;;;;5.00;2.30;;;14.80;87.20;;;;;;5078362;28;20552;-79
2021/10/27 04:55:45;;;;;;;4.30;2.20;;;14.80;87.10;;;;;;5075341;28;20073;-79
2021/10/27 04:58:11;;;;;;;5.53;2.00;;;14.80;87.00;;;;;;5109499;28;20032;-79
2021/10/27 05:00:38;;;;;;;3.42;2.00;;;14.80;87.00;;;;;;5094578;28;20028;-78
2021/10/27 05:03:04;;;;;;;4.07;2.30;;;14.80;87.00;;;;;;5091881;28;20400;-79
2021/10/27 05:05:32;;;;;;;3.83;2.17;;;14.80;86.90;;;;;;5092051;28;20024;-79
2021/10/27 05:08:00;;;;;;;4.63;2.05;;;14.80;86.90;;;;;;5109261;28;20074;-79
2021/10/27 05:10:25;;;;;;;4.63;2.20;;;14.80;86.90;;;;;;5109140;28;20048;-79
2021/10/27 05:12:51;;;;;;;4.90;2.47;;;14.80;86.80;;;;;;5092028;28;20029;-79
2021/10/27 05:15:17;;;;;;;6.00;2.08;;;14.80;86.80;;;;;;5092188;28;20052;-80
2021/10/27 05:17:43;;;;;;;5.45;2.22;;;14.80;86.80;;;;;;5109001;28;20035;-80
2021/10/27 05:20:09;;;;;;;3.92;2.38;;;14.80;86.80;;;;;;5108958;28;20028;-79
2021/10/27 05:22:34;;;;;;;6.22;2.38;;;14.80;86.70;;;;;;5108551;28;20032;-79
2021/10/27 05:25:00;;;;;;;3.90;2.20;;;14.80;86.70;;;;;;5108477;28;20372;-79
2021/10/27 05:27:25;;;;;;;6.30;2.40;;;14.80;86.80;;;;;;5091474;28;20032;-79
2021/10/27 05:29:51;;;;;;;3.90;2.10;;;14.80;86.70;;;;;;5091488;28;20035;-79
2021/10/27 05:32:17;;;;;;;6.18;2.17;;;14.80;86.70;;;;;;5108457;28;20036;-79
2021/10/27 05:34:43;;;;;;;6.10;2.28;;;14.80;86.70;;;;;;5108191;28;20373;-78
2021/10/27 05:37:10;;;;;;;4.38;2.20;;;14.80;86.70;;;;;;5075832;28;20028;-80
2021/10/27 05:39:36;;;;;;;5.75;2.17;;;14.80;86.70;;;;;;5074521;28;20488;-78
2021/10/27 05:42:03;;;;;;;3.40;2.70;;;14.80;86.70;;;;;;5091264;28;20037;-79
2021/10/27 05:44:29;;;;;;;5.65;2.35;;;14.80;86.60;;;;;;5075741;28;20107;-78
2021/10/27 05:46:56;;;;;;;6.35;2.35;;;14.80;86.60;;;;;;5107372;28;20136;-79
2021/10/27 05:51:52;;;;;;;5.28;2.40;;;14.80;86.60;;;;;;5076336;28;20062;-79
2021/10/27 05:57:03;;;;;;;4.63;2.30;;;14.80;86.60;;;;;;5075171;28;20103;-78
2021/10/27 05:59:29;;;;;;;4.15;2.35;;;14.80;86.60;;;;;;5075579;28;20496;-80
2021/10/27 06:01:54;;;;;;;6.75;2.47;;;14.80;87.20;;;;;;5108163;28;20032;-78
2021/10/27 06:04:20;;;;;;;9.93;2.60;;;14.80;86.50;;;;;;5108197;28;20392;-80
2021/10/27 06:06:46;;;;;;;4.72;2.22;;;14.80;86.50;;;;;;5075372;28;20431;-79
2021/10/27 06:09:13;;;;;;;3.35;2.10;;;14.80;86.50;;;;;;5107941;28;20047;-79
2021/10/27 06:11:39;;;;;;;5.90;2.28;;;14.80;86.50;;;;;;5107773;28;20017;-78
2021/10/27 06:14:05;;;;;;;5.55;2.38;;;14.70;86.40;;;;;;5075130;28;20035;-79
2021/10/27 06:16:31;;;;;;;5.65;2.90;;;14.70;86.40;;;;;;5075901;28;20028;-79
2021/10/27 06:18:57;;;;;;;4.50;2.30;;;14.70;86.40;;;;;;5109881;28;20016;-79
2021/10/27 06:21:24;;;;;;;6.82;2.33;;;14.70;86.50;;;;;;5108499;28;20029;-78
2021/10/27 06:24:30;;;;;;;5.43;2.40;;;14.70;86.40;;;;;;5075474;28;20029;-78
2021/10/27 06:26:57;;;;;;;4.57;2.50;;;14.70;86.40;;;;;;5091069;28;20033;-79
2021/10/27 06:29:30;;;;;;;6.53;2.47;;;14.70;86.40;;;;;;5074109;28;20166;-81
2021/10/27 06:34:37;;;;;;;5.57;2.53;;;14.70;86.40;;;;;;5075146;28;20044;-80
2021/10/27 06:37:16;;;;;;;3.65;2.30;;;14.70;86.40;;;;;;5074953;28;20098;-80
2021/10/27 06:47:47;;;;;;;6.93;2.72;;;14.70;86.40;;;;;;5075759;28;20091;-80
2021/10/27 06:53:35;;;;;;;5.78;2.63;;;14.80;86.30;;;;;;5076301;28;20035;-80
2021/10/27 06:56:10;;;;;;;5.63;2.72;;;14.70;86.20;;;;;;5073879;28;20043;-80
2021/10/27 06:58:43;;;;;;;4.60;3.08;;;14.70;86.20;;;;;;5089332;28;20100;-79
2021/10/27 07:01:18;;;;;;;;;;;14.70;86.20;;;;;;5093062;28;20060;-80
2021/10/27 07:17:25;;;;;;;5.47;3.30;;;14.70;86.10;;;;;;5075449;28;20063;-81
2021/10/27 07:19:51;;;;;;;6.38;3.17;;;14.60;86.00;;;;;;5090719;28;20468;-80
2021/10/27 07:22:16;;;;;;;6.30;3.20;;;14.60;85.90;;;;;;5094030;28;20028;-79
2021/10/27 07:24:42;;;;;;;7.20;3.03;;;14.60;85.90;;;;;;5091348;28;20531;-80
2021/10/27 07:30:13;;;;;;;5.38;3.15;;;14.60;85.90;;;;;;5097391;28;20502;-79
2021/10/27 07:32:40;;;;;;;7.05;3.35;;;14.70;86.00;;;;;;5079434;28;20020;-80
2021/10/27 07:41:12;;;;;;;6.75;4.00;;;14.70;85.70;;;;;;5107724;28;20039;-84
2021/10/27 07:43:37;;;;;;;6.38;3.67;;;14.80;85.70;;;;;;5086329;28;20028;-83
2021/10/27 07:46:03;;;;;;;5.88;2.90;;;14.80;85.70;;;;;;5089046;28;20048;-84
2021/10/27 07:48:33;;;;;;;7.93;3.13;;;14.80;85.70;;;;;;5064877;28;20075;-83
2021/10/27 07:50:59;;;;;;;6.00;3.70;;;14.80;85.60;;;;;;5064548;28;20029;-83
2021/10/27 07:53:27;;;;;;;6.30;3.70;;;14.90;85.60;;;;;;5057132;28;20107;-85
2021/10/27 07:55:55;;;;;;;7.15;3.92;;;14.80;85.50;;;;;;5060045;28;20562;-84
2021/10/27 07:58:27;;;;;;;5.28;3.60;;;14.90;85.50;;;;;;5059138;28;20491;-84
2021/10/27 08:00:57;;;;;;;3.90;3.10;;;14.90;85.50;;;;;;5051262;28;20116;-85
2021/10/27 08:03:23;;;;;;;7.15;3.60;;;14.90;85.50;;;;;;5071840;28;20053;-83
2021/10/27 08:05:49;;;;;;;5.45;3.42;;;14.90;85.30;;;;;;5074571;28;20138;-80
2021/10/27 08:08:20;;;;;;;9.43;3.53;;;14.90;85.30;;;;;;5076263;28;20029;-83
2021/10/27 08:10:48;;;;;;;6.75;3.88;;;14.90;85.30;;;;;;5074948;28;20055;-82
2021/10/27 08:13:14;;;;;;;6.00;3.42;;;14.90;85.20;;;;;;5037496;28;20064;-80
2021/10/27 08:15:39;;;;;;;7.30;4.00;;;15.00;85.30;;;;;;5040762;28;20040;-80
2021/10/27 08:18:11;;;;;;;10.80;4.13;;;15.00;85.10;;;;;;5081050;28;20508;-84
2021/10/27 08:20:37;;;;;;;6.38;3.72;;;15.00;85.00;;;;;;5120593;28;20036;-83
2021/10/27 08:23:12;;;;;;;8.05;4.15;;;15.00;84.90;;;;;;5103065;28;20062;-83
2021/10/27 08:29:10;;;;;;;5.30;3.70;;;15.20;84.70;;;;;;5085687;28;20105;-83
2021/10/27 08:31:40;;;;;;;6.10;3.65;;;15.20;84.50;;;;;;5092991;28;20024;-82
2021/10/27 08:34:22;;;;;;;7.13;4.30;;;15.30;84.40;;;;;;5099612;28;20059;-80
2021/10/27 08:36:48;;;;;;;6.70;4.00;;;15.30;84.10;;;;;;5091389;28;20063;-78
2021/10/27 08:39:15;;;;;;;6.22;4.00;;;15.30;84.10;;;;;;5095184;28;20028;-82
2021/10/27 08:41:41;;;;;;;8.45;3.97;;;15.30;84.20;;;;;;5092237;28;20037;-83
2021/10/27 08:44:09;;;;;;;6.10;3.83;;;15.30;84.20;;;;;;5090736;28;20017;-81
2021/10/27 08:46:35;;;;;;;8.25;4.20;;;15.30;84.20;;;;;;5089514;28;20049;-82
2021/10/27 08:49:04;;;;;;;5.85;3.72;;;15.30;84.20;;;;;;5074624;28;20412;-81
2021/10/27 08:54:52;;;;;;;8.23;4.30;;;15.30;84.10;;;;;;5074312;28;20043;-81
2021/10/27 08:57:19;;;;;;;7.00;3.83;;;15.30;84.10;;;;;;5089773;28;20387;-81
2021/10/27 09:16:11;;;;;;;6.70;4.40;;;15.20;84.10;;;;;;5073898;28;20036;-80
2021/10/27 09:55:49;;;;;;;6.15;4.82;;;16.20;82.30;;;;;;5075950;28;20059;-81
2021/10/27 10:06:44;;;;;;;6.43;4.97;;;16.40;81.60;;;;;;5076222;28;20085;-81
2021/10/27 10:09:11;;;;;;;6.07;4.45;;;16.40;81.40;;;;;;5077500;28;20027;-82
2021/10/27 10:11:37;;;;;;;6.25;4.30;;;16.50;81.20;;;;;;5094606;28;20017;-81
2021/10/27 10:14:07;;;;;;;7.35;4.25;;;16.50;81.20;;;;;;5090908;28;20380;-80
2021/10/27 10:19:55;;;;;;;5.20;3.75;;;16.60;80.80;;;;;;5075261;28;20023;-80
2021/10/27 10:22:40;;;;;;;6.18;4.30;;;16.70;80.70;;;;;;5093783;28;20485;-79
2021/10/27 10:25:15;;;;;;;7.75;4.15;;;16.70;80.50;;;;;;5090708;28;20028;-81
2021/10/27 10:27:42;;;;;;;9.60;4.68;;;16.80;80.50;;;;;;5107513;28;20043;-80
2021/10/27 10:30:35;;;;;;;6.68;4.47;;;16.80;80.20;;;;;;5076266;28;20445;-80
2021/10/27 10:33:11;;;;;;;6.82;4.68;;;16.90;80.00;;;;;;5090285;28;20025;-81
2021/10/27 10:41:32;;;;;;;6.32;4.28;;;17.00;79.60;;;;;;5074922;28;20063;-79
2021/10/27 11:26:15;;;;;;;7.03;3.38;;;17.10;76.60;;;;;;5076035;28;20039;-82
2021/10/27 11:40:10;;;;;;;5.65;3.67;;;17.00;77.00;;;;;;5083072;28;20025;-81
2021/10/27 11:43:08;;;;;;;7.05;3.55;;;17.00;76.90;;;;;;5078748;28;20388;-83
2021/10/27 11:51:21;;;;;;;5.55;3.05;;;17.00;77.20;;;;;;5079039;28;20074;-81
2021/10/27 11:53:49;;;;;;;8.10;3.90;;;17.00;77.40;;;;;;5094903;28;20444;-82
2021/10/27 11:56:19;;;;;;;5.70;3.20;;;16.90;77.10;;;;;;5081207;28;20090;-81
2021/10/27 11:58:47;;;;;;;3.63;3.00;;;16.90;77.30;;;;;;5080834;28;20027;-81
2021/10/27 12:01:33;;;;;;;3.97;3.40;;;16.90;77.50;;;;;;5096277;28;20116;-80
2021/10/27 12:04:00;;;;;;;5.65;3.90;;;16.90;77.30;;;;;;5097046;28;20017;-81
2021/10/27 12:06:37;;;;;;;4.55;3.60;;;16.90;77.20;;;;;;5092879;28;20032;-83
2021/10/27 12:12:08;;;;;;;5.15;3.25;;;17.00;77.50;;;;;;5075031;28;20036;-80
2021/10/27 12:14:55;;;;;;;5.07;3.47;;;17.00;77.40;;;;;;5091703;28;20119;-81
2021/10/27 12:19:52;;;;;;;5.07;3.08;;;17.10;77.30;;;;;;5097746;28;20027;-81
2021/10/27 12:22:22;;;;;;;8.70;4.05;;;17.10;77.30;;;;;;5094209;28;20036;-81
2021/10/27 12:24:57;;;;;;;4.47;3.30;;;17.20;77.20;;;;;;5096292;28;20043;-81
2021/10/27 12:27:37;;;;;;;5.47;3.40;;;17.20;77.00;;;;;;5096261;28;20032;-81
2021/10/27 12:30:08;;;;;;;7.22;3.38;;;17.20;76.80;;;;;;5095146;28;20419;-81
2021/10/27 12:32:47;;;;;;;5.90;3.50;;;17.20;76.70;;;;;;5097114;28;20038;-81
2021/10/27 12:35:53;;;;;;;6.68;3.75;;;17.30;76.50;;;;;;5101156;28;20028;-81
2021/10/27 12:38:22;;;;;;;4.97;3.45;;;17.30;76.50;;;;;;5108624;28;20047;-81
2021/10/27 12:40:50;;;;;;;6.65;3.22;;;17.30;76.50;;;;;;5103390;28;20069;-81
2021/10/27 12:43:18;;;;;;;4.03;3.38;;;17.30;76.40;;;;;;5092794;28;20071;-82
2021/10/27 12:45:51;;;;;;;5.80;3.20;;;17.40;76.50;;;;;;5094500;28;20024;-82
2021/10/27 12:48:35;;;;;;;;;;;17.40;76.40;;;;;;5086885;28;20037;-82
2021/10/27 12:51:10;;;;;;;6.07;3.40;;;17.40;76.50;;;;;;5095963;28;19912;-82
2021/10/27 12:53:47;;;;;;;5.07;3.10;;;17.40;76.50;;;;;;5096575;28;20020;-83
2021/10/27 12:56:14;;;;;;;7.40;3.38;;;17.40;76.50;;;;;;5095228;28;20036;-82
2021/10/27 12:58:48;;;;;;;6.45;3.22;;;17.40;76.40;;;;;;5098647;28;20541;-81
2021/10/27 13:06:53;;;;;;;5.28;4.10;;;17.50;76.30;;;;;;5085791;28;20063;-85
2021/10/27 13:22:43;;;;;;;5.05;3.63;;;17.40;75.90;;;;;;5090023;28;20056;-82
2021/10/27 13:30:53;;;;;;;6.82;3.53;;;17.50;75.70;;;;;;5077818;28;20043;-81
2021/10/27 13:33:21;;;;;;;5.53;3.17;;;17.70;75.50;;;;;;5093716;28;20035;-81
2021/10/27 13:35:47;;;;;;;6.32;3.63;;;17.80;75.30;;;;;;5094650;28;20111;-81
2021/10/27 13:38:14;;;;;;;5.22;3.63;;;17.80;75.00;;;;;;5095705;28;20056;-81
2021/10/27 13:40:42;;;;;;;6.82;3.70;;;17.80;74.60;;;;;;5094410;28;20021;-81
2021/10/27 13:43:13;;;;;;;6.28;3.92;;;17.80;74.50;;;;;;5095256;28;20096;-80
2021/10/27 14:07:47;;;;;;;5.75;3.50;;;17.90;73.80;;;;;;5077122;28;20101;-81
2021/10/27 14:10:18;;;;;;;7.10;3.42;;;17.90;73.40;;;;;;5094856;28;20033;-81
2021/10/27 14:16:37;;;;;;;7.57;3.28;;;18.00;73.50;;;;;;5095500;28;20096;-82
2021/10/27 15:19:50;;;;;;;3.67;2.83;;;17.30;74.00;;;;;;5073786;28;20043;-81
2021/10/27 15:30:07;;;;;;;4.97;2.70;;;17.10;74.40;;;;;;5074151;28;20024;-81
2021/10/27 15:35:30;;;;;;;7.68;3.03;;;17.00;74.70;;;;;;5074276;28;20036;-81
2021/10/27 15:43:36;;;;;;;6.20;3.17;;;16.80;75.30;;;;;;5074567;28;20396;-81
2021/10/27 15:51:32;;;;;;;5.82;2.92;;;16.70;75.80;;;;;;5074600;28;20066;-81
2021/10/27 15:53:58;;;;;;;6.38;3.50;;;16.60;75.90;;;;;;5107599;28;20032;-82
2021/10/27 15:56:24;;;;;;;7.38;3.20;;;16.50;76.00;;;;;;5107128;28;20352;-81
2021/10/27 15:58:50;;;;;;;6.30;2.90;;;16.50;76.20;;;;;;5074886;28;20425;-81
2021/10/27 16:01:16;;;;;;;4.43;2.83;;;16.50;76.30;;;;;;5108304;28;20023;-82
2021/10/27 16:03:42;;;;;;;6.75;3.30;;;16.40;76.40;;;;;;5108116;28;20032;-81
2021/10/27 16:06:08;;;;;;;5.47;3.78;;;16.40;76.50;;;;;;5090193;28;20036;-82
2021/10/27 16:08:36;;;;;;;13.07;5.78;;;16.30;76.60;;;;;;5089150;28;20063;-82
2021/10/27 16:14:27;;;;;;;8.70;4.63;;;16.20;76.80;;;;;;5075374;28;20063;-84
2021/10/27 16:16:53;;;;;;;5.28;3.40;;;16.20;77.10;;;;;;5105880;28;20028;-78
2021/10/27 16:19:19;;;;;;;7.85;3.70;;;16.10;77.10;;;;;;5105702;28;20091;-78
2021/10/27 16:21:44;;;;;;;6.93;3.10;;;16.00;77.20;;;;;;5075489;28;20032;-79
2021/10/27 16:24:10;;;;;;;5.07;2.88;;;16.00;77.40;;;;;;5106057;28;20262;-79
2021/10/27 16:26:39;;;;;;;6.80;3.13;;;16.00;77.50;;;;;;5106046;28;20028;-78
2021/10/27 16:29:05;;;;;;;9.48;2.88;;;15.90;77.60;;;;;;5088342;28;20032;-77
2021/10/27 16:31:31;;;;;;;6.38;2.58;;;15.90;77.70;;;;;;5092222;28;20499;-78
2021/10/27 16:33:59;;;;;;;4.68;2.55;;;15.80;77.80;;;;;;5109455;28;20028;-78
2021/10/27 16:36:24;;;;;;;5.60;2.70;;;15.80;77.90;;;;;;5109457;28;20025;-78
2021/10/27 16:38:52;;;;;;;5.57;2.95;;;15.80;78.00;;;;;;5077493;28;20478;-78
2021/10/27 16:41:18;;;;;;;5.75;2.92;;;15.80;78.20;;;;;;5109507;28;20025;-78
2021/10/27 16:43:45;;;;;;;4.85;2.78;;;15.70;78.20;;;;;;5109438;28;20031;-79
2021/10/27 16:46:11;;;;;;;5.82;3.33;;;15.60;78.30;;;;;;5109241;28;20028;-79
2021/10/27 16:48:38;;;;;;;4.18;3.03;;;15.60;78.50;;;;;;5109178;28;20062;-79
2021/10/27 16:51:05;;;;;;;4.03;3.15;;;15.60;78.60;;;;;;5109290;28;20041;-79
2021/10/27 16:53:31;;;;;;;4.80;2.60;;;15.50;78.70;;;;;;5109250;28;20028;-79
2021/10/27 16:55:58;;;;;;;5.40;2.67;;;15.50;78.80;;;;;;5109743;28;20123;-79
2021/10/27 16:58:26;;;;;;;10.15;5.60;;;15.50;79.00;;;;;;5076545;28;20507;-79
2021/10/27 17:00:52;;;;;;;7.55;4.30;;;15.40;79.00;;;;;;5094851;28;20167;-80
2021/10/27 17:03:18;;;;;;;5.65;3.63;;;15.40;79.10;;;;;;5108895;28;20052;-80
2021/10/27 17:05:47;;;;;;;6.82;3.20;;;15.40;79.30;;;;;;5108890;28;20028;-79
2021/10/27 17:08:16;;;;;;;5.63;4.10;;;15.40;79.40;;;;;;5076402;28;20082;-80
2021/10/27 17:10:47;;;;;;;4.78;3.40;;;15.30;79.50;;;;;;5109066;28;20480;-79
2021/10/27 17:13:13;;;;;;;5.65;3.70;;;15.30;79.60;;;;;;5092370;28;20028;-79
2021/10/27 17:15:39;;;;;;;7.57;4.05;;;15.20;79.70;;;;;;5074809;28;20050;-80
2021/10/27 17:18:05;;;;;;;5.88;3.83;;;15.20;79.80;;;;;;5108946;28;20052;-80
2021/10/27 17:20:32;;;;;;;5.20;3.33;;;15.20;79.80;;;;;;5076607;28;20032;-81
2021/10/27 17:25:52;;;;;;;7.28;3.88;;;15.10;80.20;;;;;;5083188;28;20067;-83
2021/10/27 17:28:17;;;;;;;7.68;4.05;;;15.10;80.40;;;;;;5078218;28;20029;-82
2021/10/27 17:30:47;;;;;;;8.73;4.18;;;15.10;80.40;;;;;;5113375;28;20400;-81
2021/10/27 17:33:12;;;;;;;8.27;4.60;;;15.10;80.50;;;;;;5077763;28;20039;-80
2021/10/27 17:35:38;;;;;;;5.95;4.70;;;15.10;80.50;;;;;;5079511;28;20029;-82
2021/10/27 17:38:04;;;;;;;12.68;7.85;;;15.10;80.80;;;;;;5101482;28;20020;-82
2021/10/27 17:40:34;;;;;;;9.75;5.97;;;15.10;80.60;;;;;;5107376;28;20025;-83
2021/10/27 17:46:24;;;;;;;8.15;5.95;;;15.10;80.90;;;;;;5082555;28;20396;-85
2021/10/27 17:48:55;;;;;;;9.35;5.53;;;15.10;80.90;;;;;;5095803;28;20020;-83
2021/10/27 17:51:24;;;;;;;9.93;5.25;;;15.00;80.90;;;;;;5077665;28;20549;-82
2021/10/27 18:02:46;;;;;;;6.38;4.47;;;14.90;81.10;;;;;;5078142;28;20031;-81
2021/10/27 18:05:12;;;;;;;4.93;3.80;;;14.80;81.10;;;;;;5094015;28;20043;-82
2021/10/27 18:07:40;;;;;;;5.45;3.75;;;14.80;81.20;;;;;;5093331;28;20017;-81
2021/10/27 18:13:31;;;;;;;4.78;3.47;;;14.70;81.30;;;;;;5077676;28;20101;-81
2021/10/27 18:19:06;;;;;;;6.22;3.88;;;14.60;81.40;;;;;;5078314;28;20514;-81
2021/10/27 18:24:29;;;;;;;4.82;3.63;;;14.60;81.60;;;;;;5080252;28;20029;-82
2021/10/27 18:38:04;;;;;;;4.65;3.50;;;14.50;81.90;;;;;;5077194;28;20027;-81
2021/10/27 18:40:42;;;;;;;5.93;3.65;;;14.40;82.00;;;;;;5092060;28;20094;-81
2021/10/27 18:45:42;;;;;;;5.32;3.83;;;14.40;82.10;;;;;;5077037;28;20102;-81
2021/10/27 18:48:11;;;;;;;5.30;4.07;;;14.40;82.20;;;;;;5092438;28;20103;-81
2021/10/27 18:50:52;;;;;;;7.18;4.57;;;14.30;82.20;;;;;;5092391;28;20043;-81
2021/10/27 19:12:44;;;;;;;5.18;4.15;;;14.20;82.60;;;;;;5076746;28;20035;-82